sensor_id;sensor_type;location;lat;lon;timestamp;temperature;humidity
20125;DHT22;10223;50.862;4.360;2023-02-10T00:02:23;4.90;99.90
20125;DHT22;10223;50.862;4.360;2023-02-10T00:04:50;4.90;99.90
20125;DHT22;10223;50.862;4.360;2023-02-10T00:07:19;5.00;99.90
20125;DHT22;10223;50.862;4.360;2023-02-10T00:09:48;4.80;99.90
20125;DHT22;10223;50.862;4.360;2023-02-10T00:12:15;5.00;99.90
20125;DHT22;10223;50.862;4.360;2023-02-10T00:14:42;4.70;99.90
20125;DHT22;10223;50.862;4.360;2023-02-10T00:17:09;4.70;99.90
20125;DHT22;10223;50.862;4.360;2023-02-10T00:19:38;4.60;99.90
20125;DHT22;10223;50.862;4.360;2023-02-10T00:22:05;4.60;99.90
20125;DHT22;10223;50.862;4.360;2023-02-10T00:24:34;4.60;99.90
20125;DHT22;10223;50.862;4.360;2023-02-10T00:27:01;4.60;99.90
20125;DHT22;10223;50.862;4.360;2023-02-10T00:29:28;4.60;99.90
20125;DHT22;10223;50.862;4.360;2023-02-10T00:31:57;4.60;99.90
20125;DHT22;10223;50.862;4.360;2023-02-10T00:34:24;4.50;99.90
20125;DHT22;10223;50.862;4.360;2023-02-10T00:36:51;4.70;99.90
20125;DHT22;10223;50.862;4.360;2023-02-10T00:39:18;4.50;99.90
20125;DHT22;10223;50.862;4.360;2023-02-10T00:41:46;4.50;99.90
20125;DHT22;10223;50.862;4.360;2023-02-10T00:44:17;4.50;99.90
20125;DHT22;10223;50.862;4.360;2023-02-10T00:46:43;4.40;99.90
20125;DHT22;10223;50.862;4.360;2023-02-10T00:49:11;4.40;99.90
20125;DHT22;10223;50.862;4.360;2023-02-10T00:51:38;4.50;99.90
20125;DHT22;10223;50.862;4.360;2023-02-10T00:54:05;4.60;99.90
20125;DHT22;10223;50.862;4.360;2023-02-10T00:56:32;4.60;99.90
20125;DHT22;10223;50.862;4.360;2023-02-10T00:59:00;4.50;99.90
20125;DHT22;10223;50.862;4.360;2023-02-10T01:01:27;4.60;99.90
20125;DHT22;10223;50.862;4.360;2023-02-10T01:03:54;4.50;99.90
20125;DHT22;10223;50.862;4.360;2023-02-10T01:06:21;4.30;99.90
20125;DHT22;10223;50.862;4.360;2023-02-10T01:08:48;4.30;99.90
20125;DHT22;10223;50.862;4.360;2023-02-10T01:11:15;4.20;99.90
20125;DHT22;10223;50.862;4.360;2023-02-10T01:13:42;4.20;99.90
20125;DHT22;10223;50.862;4.360;2023-02-10T01:16:13;4.20;99.90
20125;DHT22;10223;50.862;4.360;2023-02-10T01:18:42;4.30;99.90
20125;DHT22;10223;50.862;4.360;2023-02-10T01:21:11;4.30;99.90
20125;DHT22;10223;50.862;4.360;2023-02-10T01:23:38;4.30;99.90
20125;DHT22;10223;50.862;4.360;2023-02-10T01:26:06;4.40;99.90
20125;DHT22;10223;50.862;4.360;2023-02-10T01:28:33;4.40;99.90
20125;DHT22;10223;50.862;4.360;2023-02-10T01:31:04;4.40;99.90
20125;DHT22;10223;50.862;4.360;2023-02-10T01:33:33;4.40;99.90
20125;DHT22;10223;50.862;4.360;2023-02-10T01:36:03;4.40;99.90
20125;DHT22;10223;50.862;4.360;2023-02-10T01:38:31;4.50;99.90
20125;DHT22;10223;50.862;4.360;2023-02-10T01:40:58;4.50;99.90
20125;DHT22;10223;50.862;4.360;2023-02-10T01:43:25;4.60;99.90
20125;DHT22;10223;50.862;4.360;2023-02-10T01:45:52;4.40;99.90
20125;DHT22;10223;50.862;4.360;2023-02-10T01:48:19;4.60;99.90
20125;DHT22;10223;50.862;4.360;2023-02-10T01:50:53;4.50;99.90
20125;DHT22;10223;50.862;4.360;2023-02-10T01:53:21;4.50;99.90
20125;DHT22;10223;50.862;4.360;2023-02-10T01:55:52;4.50;99.90
20125;DHT22;10223;50.862;4.360;2023-02-10T01:58:24;4.60;99.90
20125;DHT22;10223;50.862;4.360;2023-02-10T02:00:51;4.50;99.90
20125;DHT22;10223;50.862;4.360;2023-02-10T02:03:18;4.50;99.90
20125;DHT22;10223;50.862;4.360;2023-02-10T02:05:45;4.70;99.90
20125;DHT22;10223;50.862;4.360;2023-02-10T02:08:16;4.60;99.90
20125;DHT22;10223;50.862;4.360;2023-02-10T02:10:55;4.60;99.90
20125;DHT22;10223;50.862;4.360;2023-02-10T02:13:33;4.60;99.90
20125;DHT22;10223;50.862;4.360;2023-02-10T02:16:10;4.70;99.90
20125;DHT22;10223;50.862;4.360;2023-02-10T02:18:44;4.70;99.90
20125;DHT22;10223;50.862;4.360;2023-02-10T02:21:39;4.60;99.90
20125;DHT22;10223;50.862;4.360;2023-02-10T02:24:32;4.60;99.90
20125;DHT22;10223;50.862;4.360;2023-02-10T02:27:37;4.70;99.90
20125;DHT22;10223;50.862;4.360;2023-02-10T02:33:11;4.60;99.90
20125;DHT22;10223;50.862;4.360;2023-02-10T02:35:43;4.60;99.90
20125;DHT22;10223;50.862;4.360;2023-02-10T02:38:11;4.60;99.90
20125;DHT22;10223;50.862;4.360;2023-02-10T02:40:38;4.70;99.90
20125;DHT22;10223;50.862;4.360;2023-02-10T02:43:05;4.80;99.90
20125;DHT22;10223;50.862;4.360;2023-02-10T02:45:38;4.70;99.90
20125;DHT22;10223;50.862;4.360;2023-02-10T02:48:17;4.70;99.90
20125;DHT22;10223;50.862;4.360;2023-02-10T02:50:52;4.70;99.90
20125;DHT22;10223;50.862;4.360;2023-02-10T02:53:27;4.70;99.90
20125;DHT22;10223;50.862;4.360;2023-02-10T02:56:02;4.70;99.90
20125;DHT22;10223;50.862;4.360;2023-02-10T02:58:36;4.70;99.90
20125;DHT22;10223;50.862;4.360;2023-02-10T03:01:11;4.70;99.90
20125;DHT22;10223;50.862;4.360;2023-02-10T03:03:41;4.70;99.90
20125;DHT22;10223;50.862;4.360;2023-02-10T03:06:09;4.90;99.90
20125;DHT22;10223;50.862;4.360;2023-02-10T03:08:38;4.80;99.90
20125;DHT22;10223;50.862;4.360;2023-02-10T03:11:06;4.80;99.90
20125;DHT22;10223;50.862;4.360;2023-02-10T03:13:33;4.80;99.90
20125;DHT22;10223;50.862;4.360;2023-02-10T03:16:00;4.70;99.90
20125;DHT22;10223;50.862;4.360;2023-02-10T03:18:28;4.80;99.90
20125;DHT22;10223;50.862;4.360;2023-02-10T03:20:56;4.80;99.90
20125;DHT22;10223;50.862;4.360;2023-02-10T03:23:23;4.80;99.90
20125;DHT22;10223;50.862;4.360;2023-02-10T03:25:50;4.80;99.90
20125;DHT22;10223;50.862;4.360;2023-02-10T03:28:17;4.80;99.90
20125;DHT22;10223;50.862;4.360;2023-02-10T03:30:44;4.80;99.90
20125;DHT22;10223;50.862;4.360;2023-02-10T03:33:18;4.90;99.90
20125;DHT22;10223;50.862;4.360;2023-02-10T03:35:45;5.10;99.90
20125;DHT22;10223;50.862;4.360;2023-02-10T03:38:14;5.00;99.90
20125;DHT22;10223;50.862;4.360;2023-02-10T03:40:41;4.90;99.90
20125;DHT22;10223;50.862;4.360;2023-02-10T03:43:08;4.90;99.90
20125;DHT22;10223;50.862;4.360;2023-02-10T03:45:38;4.90;99.90
20125;DHT22;10223;50.862;4.360;2023-02-10T03:48:05;4.90;99.90
20125;DHT22;10223;50.862;4.360;2023-02-10T03:50:32;4.90;99.90
20125;DHT22;10223;50.862;4.360;2023-02-10T03:52:59;4.90;99.90
20125;DHT22;10223;50.862;4.360;2023-02-10T03:55:27;5.00;99.90
20125;DHT22;10223;50.862;4.360;2023-02-10T03:57:54;4.90;99.90
20125;DHT22;10223;50.862;4.360;2023-02-10T04:00:22;5.00;99.90
20125;DHT22;10223;50.862;4.360;2023-02-10T04:02:49;4.80;99.90
20125;DHT22;10223;50.862;4.360;2023-02-10T04:05:16;5.00;99.90
20125;DHT22;10223;50.862;4.360;2023-02-10T04:07:43;5.00;99.90
20125;DHT22;10223;50.862;4.360;2023-02-10T04:10:10;5.00;99.90
20125;DHT22;10223;50.862;4.360;2023-02-10T04:12:38;4.90;99.90
20125;DHT22;10223;50.862;4.360;2023-02-10T04:15:06;5.00;99.90
20125;DHT22;10223;50.862;4.360;2023-02-10T04:17:35;4.90;99.90
20125;DHT22;10223;50.862;4.360;2023-02-10T04:20:02;5.00;99.90
20125;DHT22;10223;50.862;4.360;2023-02-10T04:22:29;5.10;99.90
20125;DHT22;10223;50.862;4.360;2023-02-10T04:24:56;5.10;99.90
20125;DHT22;10223;50.862;4.360;2023-02-10T04:27:22;5.10;99.90
20125;DHT22;10223;50.862;4.360;2023-02-10T04:29:51;5.10;99.90
20125;DHT22;10223;50.862;4.360;2023-02-10T04:32:18;5.10;99.90
20125;DHT22;10223;50.862;4.360;2023-02-10T04:34:45;5.10;99.90
20125;DHT22;10223;50.862;4.360;2023-02-10T04:37:12;5.00;99.90
20125;DHT22;10223;50.862;4.360;2023-02-10T04:39:38;4.90;99.90
20125;DHT22;10223;50.862;4.360;2023-02-10T04:42:05;4.90;99.90
20125;DHT22;10223;50.862;4.360;2023-02-10T04:44:32;4.90;99.90
20125;DHT22;10223;50.862;4.360;2023-02-10T04:47:00;5.00;99.90
20125;DHT22;10223;50.862;4.360;2023-02-10T04:49:27;5.00;99.90
20125;DHT22;10223;50.862;4.360;2023-02-10T04:51:54;4.90;99.90
20125;DHT22;10223;50.862;4.360;2023-02-10T04:54:21;4.80;99.90
20125;DHT22;10223;50.862;4.360;2023-02-10T04:56:48;4.80;99.90
20125;DHT22;10223;50.862;4.360;2023-02-10T04:59:15;4.80;99.90
20125;DHT22;10223;50.862;4.360;2023-02-10T05:01:42;4.70;99.90
20125;DHT22;10223;50.862;4.360;2023-02-10T05:04:11;4.70;99.90
20125;DHT22;10223;50.862;4.360;2023-02-10T05:06:38;4.80;99.90
20125;DHT22;10223;50.862;4.360;2023-02-10T05:09:04;4.80;99.90
20125;DHT22;10223;50.862;4.360;2023-02-10T05:11:31;4.80;99.90
20125;DHT22;10223;50.862;4.360;2023-02-10T05:13:58;4.70;99.90
20125;DHT22;10223;50.862;4.360;2023-02-10T05:16:25;4.70;99.90
20125;DHT22;10223;50.862;4.360;2023-02-10T05:18:52;4.60;99.90
20125;DHT22;10223;50.862;4.360;2023-02-10T05:21:20;4.60;99.90
20125;DHT22;10223;50.862;4.360;2023-02-10T05:23:47;4.70;99.90
20125;DHT22;10223;50.862;4.360;2023-02-10T05:26:14;4.70;99.90
20125;DHT22;10223;50.862;4.360;2023-02-10T05:28:41;4.50;99.90
20125;DHT22;10223;50.862;4.360;2023-02-10T05:31:08;4.70;99.90
20125;DHT22;10223;50.862;4.360;2023-02-10T05:33:35;4.60;99.90
20125;DHT22;10223;50.862;4.360;2023-02-10T05:36:06;4.50;99.90
20125;DHT22;10223;50.862;4.360;2023-02-10T05:38:34;4.40;99.90
20125;DHT22;10223;50.862;4.360;2023-02-10T05:41:02;4.30;99.90
20125;DHT22;10223;50.862;4.360;2023-02-10T05:43:29;4.20;99.90
20125;DHT22;10223;50.862;4.360;2023-02-10T05:45:56;4.40;99.90
20125;DHT22;10223;50.862;4.360;2023-02-10T05:48:23;4.20;99.90
20125;DHT22;10223;50.862;4.360;2023-02-10T05:50:50;4.30;99.90
20125;DHT22;10223;50.862;4.360;2023-02-10T05:53:17;4.30;99.90
20125;DHT22;10223;50.862;4.360;2023-02-10T05:55:46;4.30;99.90
20125;DHT22;10223;50.862;4.360;2023-02-10T05:58:14;4.30;99.90
20125;DHT22;10223;50.862;4.360;2023-02-10T06:00:41;4.30;99.90
20125;DHT22;10223;50.862;4.360;2023-02-10T06:03:08;4.30;99.90
20125;DHT22;10223;50.862;4.360;2023-02-10T06:05:35;4.20;99.90
20125;DHT22;10223;50.862;4.360;2023-02-10T06:08:02;4.20;99.90
20125;DHT22;10223;50.862;4.360;2023-02-10T06:10:29;4.20;99.90
20125;DHT22;10223;50.862;4.360;2023-02-10T06:12:57;4.20;99.90
20125;DHT22;10223;50.862;4.360;2023-02-10T06:15:24;4.30;99.90
20125;DHT22;10223;50.862;4.360;2023-02-10T06:17:51;4.20;99.90
20125;DHT22;10223;50.862;4.360;2023-02-10T06:20:18;4.20;99.90
20125;DHT22;10223;50.862;4.360;2023-02-10T06:22:45;4.20;99.90
20125;DHT22;10223;50.862;4.360;2023-02-10T06:25:12;4.20;99.90
20125;DHT22;10223;50.862;4.360;2023-02-10T06:27:39;4.10;99.90
20125;DHT22;10223;50.862;4.360;2023-02-10T06:30:09;4.20;99.90
20125;DHT22;10223;50.862;4.360;2023-02-10T06:32:36;4.10;99.90
20125;DHT22;10223;50.862;4.360;2023-02-10T06:35:03;4.10;99.90
20125;DHT22;10223;50.862;4.360;2023-02-10T06:37:30;4.10;99.90
20125;DHT22;10223;50.862;4.360;2023-02-10T06:39:57;4.10;99.90
20125;DHT22;10223;50.862;4.360;2023-02-10T06:42:24;4.10;99.90
20125;DHT22;10223;50.862;4.360;2023-02-10T06:44:51;4.10;99.90
20125;DHT22;10223;50.862;4.360;2023-02-10T06:47:19;4.00;99.90
20125;DHT22;10223;50.862;4.360;2023-02-10T06:49:46;4.10;99.90
20125;DHT22;10223;50.862;4.360;2023-02-10T06:52:16;4.30;99.90
20125;DHT22;10223;50.862;4.360;2023-02-10T06:54:43;4.20;99.90
20125;DHT22;10223;50.862;4.360;2023-02-10T06:57:10;4.20;99.90
20125;DHT22;10223;50.862;4.360;2023-02-10T06:59:37;4.10;99.90
20125;DHT22;10223;50.862;4.360;2023-02-10T07:02:04;4.00;99.90
20125;DHT22;10223;50.862;4.360;2023-02-10T07:04:32;4.10;99.90
20125;DHT22;10223;50.862;4.360;2023-02-10T07:06:59;4.20;99.90
20125;DHT22;10223;50.862;4.360;2023-02-10T07:09:28;4.20;99.90
20125;DHT22;10223;50.862;4.360;2023-02-10T07:11:57;4.10;99.90
20125;DHT22;10223;50.862;4.360;2023-02-10T07:14:25;4.10;99.90
20125;DHT22;10223;50.862;4.360;2023-02-10T07:16:52;4.10;99.90
20125;DHT22;10223;50.862;4.360;2023-02-10T07:19:19;4.10;99.90
20125;DHT22;10223;50.862;4.360;2023-02-10T07:21:47;4.10;99.90
20125;DHT22;10223;50.862;4.360;2023-02-10T07:24:15;4.10;99.90
20125;DHT22;10223;50.862;4.360;2023-02-10T07:26:42;4.20;99.90
20125;DHT22;10223;50.862;4.360;2023-02-10T07:29:10;4.00;99.90
20125;DHT22;10223;50.862;4.360;2023-02-10T07:31:37;4.20;99.90
20125;DHT22;10223;50.862;4.360;2023-02-10T07:34:04;4.20;99.90
20125;DHT22;10223;50.862;4.360;2023-02-10T07:36:31;4.20;99.90
20125;DHT22;10223;50.862;4.360;2023-02-10T07:38:59;4.20;99.90
20125;DHT22;10223;50.862;4.360;2023-02-10T07:41:26;4.20;99.90
20125;DHT22;10223;50.862;4.360;2023-02-10T07:43:53;4.50;99.90
20125;DHT22;10223;50.862;4.360;2023-02-10T07:46:21;4.30;99.90
20125;DHT22;10223;50.862;4.360;2023-02-10T07:48:48;4.30;99.90
20125;DHT22;10223;50.862;4.360;2023-02-10T07:51:24;4.40;99.90
20125;DHT22;10223;50.862;4.360;2023-02-10T07:53:56;4.30;99.90
20125;DHT22;10223;50.862;4.360;2023-02-10T07:56:25;4.60;99.90
20125;DHT22;10223;50.862;4.360;2023-02-10T07:58:52;4.70;99.90
20125;DHT22;10223;50.862;4.360;2023-02-10T08:01:19;4.70;99.90
20125;DHT22;10223;50.862;4.360;2023-02-10T08:03:46;4.60;99.90
20125;DHT22;10223;50.862;4.360;2023-02-10T08:06:19;4.70;99.90
20125;DHT22;10223;50.862;4.360;2023-02-10T08:08:46;4.60;99.90
20125;DHT22;10223;50.862;4.360;2023-02-10T08:11:14;4.60;99.90
20125;DHT22;10223;50.862;4.360;2023-02-10T08:13:43;4.60;99.90
20125;DHT22;10223;50.862;4.360;2023-02-10T08:16:10;4.70;99.90
20125;DHT22;10223;50.862;4.360;2023-02-10T08:18:37;4.90;99.90
20125;DHT22;10223;50.862;4.360;2023-02-10T08:21:04;4.90;99.90
20125;DHT22;10223;50.862;4.360;2023-02-10T08:23:31;4.90;99.90
20125;DHT22;10223;50.862;4.360;2023-02-10T08:26:02;4.80;99.90
20125;DHT22;10223;50.862;4.360;2023-02-10T08:28:30;4.90;99.90
20125;DHT22;10223;50.862;4.360;2023-02-10T08:31:00;5.10;99.90
20125;DHT22;10223;50.862;4.360;2023-02-10T08:33:27;4.80;99.90
20125;DHT22;10223;50.862;4.360;2023-02-10T08:35:55;4.80;99.90
20125;DHT22;10223;50.862;4.360;2023-02-10T08:38:22;4.70;99.90
20125;DHT22;10223;50.862;4.360;2023-02-10T08:40:54;4.70;99.90
20125;DHT22;10223;50.862;4.360;2023-02-10T08:43:21;4.60;99.90
20125;DHT22;10223;50.862;4.360;2023-02-10T08:45:49;4.80;99.90
20125;DHT22;10223;50.862;4.360;2023-02-10T08:48:18;4.70;99.90
20125;DHT22;10223;50.862;4.360;2023-02-10T08:50:45;4.80;99.90
20125;DHT22;10223;50.862;4.360;2023-02-10T08:53:12;4.80;99.90
20125;DHT22;10223;50.862;4.360;2023-02-10T08:55:39;4.80;99.90
20125;DHT22;10223;50.862;4.360;2023-02-10T08:58:06;4.80;99.90
20125;DHT22;10223;50.862;4.360;2023-02-10T09:00:34;4.80;99.90
20125;DHT22;10223;50.862;4.360;2023-02-10T09:03:04;4.50;99.90
20125;DHT22;10223;50.862;4.360;2023-02-10T09:05:35;4.60;99.90
20125;DHT22;10223;50.862;4.360;2023-02-10T09:08:02;4.70;99.90
20125;DHT22;10223;50.862;4.360;2023-02-10T09:10:30;4.70;99.90
20125;DHT22;10223;50.862;4.360;2023-02-10T09:12:57;4.80;99.90
20125;DHT22;10223;50.862;4.360;2023-02-10T09:15:24;5.00;99.90
20125;DHT22;10223;50.862;4.360;2023-02-10T09:17:51;4.70;99.90
20125;DHT22;10223;50.862;4.360;2023-02-10T09:20:18;4.70;99.90
20125;DHT22;10223;50.862;4.360;2023-02-10T09:22:47;4.80;99.90
20125;DHT22;10223;50.862;4.360;2023-02-10T09:25:16;4.90;99.90
20125;DHT22;10223;50.862;4.360;2023-02-10T09:27:43;4.90;99.90
20125;DHT22;10223;50.862;4.360;2023-02-10T09:30:11;4.80;99.90
20125;DHT22;10223;50.862;4.360;2023-02-10T09:32:38;4.80;99.90
20125;DHT22;10223;50.862;4.360;2023-02-10T09:35:05;4.90;99.90
20125;DHT22;10223;50.862;4.360;2023-02-10T09:37:33;4.90;99.90
20125;DHT22;10223;50.862;4.360;2023-02-10T09:40:03;5.00;99.90
20125;DHT22;10223;50.862;4.360;2023-02-10T09:42:40;5.10;99.90
20125;DHT22;10223;50.862;4.360;2023-02-10T09:45:15;5.10;99.90
20125;DHT22;10223;50.862;4.360;2023-02-10T09:47:48;5.00;99.90
20125;DHT22;10223;50.862;4.360;2023-02-10T09:50:28;4.80;99.90
20125;DHT22;10223;50.862;4.360;2023-02-10T09:53:08;4.90;99.90
20125;DHT22;10223;50.862;4.360;2023-02-10T09:55:39;5.00;99.90
20125;DHT22;10223;50.862;4.360;2023-02-10T09:58:16;4.90;99.90
20125;DHT22;10223;50.862;4.360;2023-02-10T10:00:45;5.10;99.90
20125;DHT22;10223;50.862;4.360;2023-02-10T10:03:16;5.10;99.90
20125;DHT22;10223;50.862;4.360;2023-02-10T10:05:50;5.00;99.90
20125;DHT22;10223;50.862;4.360;2023-02-10T10:08:24;5.00;99.90
20125;DHT22;10223;50.862;4.360;2023-02-10T10:10:58;5.00;99.90
20125;DHT22;10223;50.862;4.360;2023-02-10T10:13:30;5.00;99.90
20125;DHT22;10223;50.862;4.360;2023-02-10T10:16:13;5.00;99.90
20125;DHT22;10223;50.862;4.360;2023-02-10T10:18:50;5.10;99.90
20125;DHT22;10223;50.862;4.360;2023-02-10T10:21:26;5.30;99.90
20125;DHT22;10223;50.862;4.360;2023-02-10T10:24:05;5.10;99.90
20125;DHT22;10223;50.862;4.360;2023-02-10T10:26:48;5.20;99.90
20125;DHT22;10223;50.862;4.360;2023-02-10T10:29:23;5.20;99.90
20125;DHT22;10223;50.862;4.360;2023-02-10T10:31:58;5.20;99.90
20125;DHT22;10223;50.862;4.360;2023-02-10T10:34:33;5.20;99.90
20125;DHT22;10223;50.862;4.360;2023-02-10T10:37:11;5.20;99.90
20125;DHT22;10223;50.862;4.360;2023-02-10T10:39:44;5.40;99.90
20125;DHT22;10223;50.862;4.360;2023-02-10T10:42:19;5.50;99.90
20125;DHT22;10223;50.862;4.360;2023-02-10T10:44:48;5.40;99.90
20125;DHT22;10223;50.862;4.360;2023-02-10T10:47:20;5.40;99.90
20125;DHT22;10223;50.862;4.360;2023-02-10T10:49:48;5.40;99.90
20125;DHT22;10223;50.862;4.360;2023-02-10T10:52:25;5.50;99.90
20125;DHT22;10223;50.862;4.360;2023-02-10T10:54:54;5.40;99.90
20125;DHT22;10223;50.862;4.360;2023-02-10T10:57:24;5.60;99.90
20125;DHT22;10223;50.862;4.360;2023-02-10T10:59:54;5.50;99.90
20125;DHT22;10223;50.862;4.360;2023-02-10T11:02:24;5.50;99.90
20125;DHT22;10223;50.862;4.360;2023-02-10T11:05:11;5.60;99.90
20125;DHT22;10223;50.862;4.360;2023-02-10T11:07:40;5.50;99.90
20125;DHT22;10223;50.862;4.360;2023-02-10T11:10:21;5.60;99.90
20125;DHT22;10223;50.862;4.360;2023-02-10T11:12:50;5.60;99.90
20125;DHT22;10223;50.862;4.360;2023-02-10T11:15:38;5.50;99.90
20125;DHT22;10223;50.862;4.360;2023-02-10T11:18:12;5.60;99.90
20125;DHT22;10223;50.862;4.360;2023-02-10T11:20:41;5.60;99.90
20125;DHT22;10223;50.862;4.360;2023-02-10T11:23:17;5.70;99.90
20125;DHT22;10223;50.862;4.360;2023-02-10T11:25:46;5.60;99.90
20125;DHT22;10223;50.862;4.360;2023-02-10T11:28:20;5.70;99.90
20125;DHT22;10223;50.862;4.360;2023-02-10T11:30:55;5.80;99.90
20125;DHT22;10223;50.862;4.360;2023-02-10T11:33:25;5.80;99.90
20125;DHT22;10223;50.862;4.360;2023-02-10T11:35:57;5.80;99.90
20125;DHT22;10223;50.862;4.360;2023-02-10T11:38:26;5.80;99.90
20125;DHT22;10223;50.862;4.360;2023-02-10T11:40:55;5.80;99.90
20125;DHT22;10223;50.862;4.360;2023-02-10T11:43:29;5.90;99.90
20125;DHT22;10223;50.862;4.360;2023-02-10T11:45:58;5.90;99.90
20125;DHT22;10223;50.862;4.360;2023-02-10T11:48:27;6.00;99.90
20125;DHT22;10223;50.862;4.360;2023-02-10T11:51:02;6.00;99.90
20125;DHT22;10223;50.862;4.360;2023-02-10T11:53:31;6.20;99.90
20125;DHT22;10223;50.862;4.360;2023-02-10T11:56:01;6.20;99.90
20125;DHT22;10223;50.862;4.360;2023-02-10T12:01:51;6.40;99.90
20125;DHT22;10223;50.862;4.360;2023-02-10T12:04:47;6.30;99.90
20125;DHT22;10223;50.862;4.360;2023-02-10T12:07:27;6.30;99.90
20125;DHT22;10223;50.862;4.360;2023-02-10T12:10:02;6.30;99.90
20125;DHT22;10223;50.862;4.360;2023-02-10T12:12:37;6.40;99.90
20125;DHT22;10223;50.862;4.360;2023-02-10T12:15:26;6.30;99.90
20125;DHT22;10223;50.862;4.360;2023-02-10T12:18:00;6.40;99.90
20125;DHT22;10223;50.862;4.360;2023-02-10T12:20:38;6.40;99.90
20125;DHT22;10223;50.862;4.360;2023-02-10T12:26:18;6.40;99.90
20125;DHT22;10223;50.862;4.360;2023-02-10T12:28:59;6.50;99.90
20125;DHT22;10223;50.862;4.360;2023-02-10T12:31:41;6.60;99.90
20125;DHT22;10223;50.862;4.360;2023-02-10T12:34:27;6.60;99.90
20125;DHT22;10223;50.862;4.360;2023-02-10T12:37:06;6.70;99.90
20125;DHT22;10223;50.862;4.360;2023-02-10T12:39:41;6.60;99.90
20125;DHT22;10223;50.862;4.360;2023-02-10T12:42:26;6.70;99.90
20125;DHT22;10223;50.862;4.360;2023-02-10T12:45:07;6.70;99.90
20125;DHT22;10223;50.862;4.360;2023-02-10T12:47:46;6.80;99.90
20125;DHT22;10223;50.862;4.360;2023-02-10T12:50:26;6.60;99.90
20125;DHT22;10223;50.862;4.360;2023-02-10T12:53:00;6.60;99.90
20125;DHT22;10223;50.862;4.360;2023-02-10T12:55:37;6.80;99.90
20125;DHT22;10223;50.862;4.360;2023-02-10T12:58:12;6.60;99.90
20125;DHT22;10223;50.862;4.360;2023-02-10T13:00:43;6.60;99.90
20125;DHT22;10223;50.862;4.360;2023-02-10T13:03:17;6.70;99.90
20125;DHT22;10223;50.862;4.360;2023-02-10T13:05:48;6.80;99.90
20125;DHT22;10223;50.862;4.360;2023-02-10T13:08:22;6.90;99.90
20125;DHT22;10223;50.862;4.360;2023-02-10T13:10:52;6.80;99.90
20125;DHT22;10223;50.862;4.360;2023-02-10T13:13:23;7.00;99.90
20125;DHT22;10223;50.862;4.360;2023-02-10T13:15:57;6.90;99.90
20125;DHT22;10223;50.862;4.360;2023-02-10T13:18:28;6.90;99.90
20125;DHT22;10223;50.862;4.360;2023-02-10T13:21:00;6.80;99.90
20125;DHT22;10223;50.862;4.360;2023-02-10T13:23:33;6.70;99.90
20125;DHT22;10223;50.862;4.360;2023-02-10T13:26:16;6.80;99.90
20125;DHT22;10223;50.862;4.360;2023-02-10T13:28:51;6.80;99.90
20125;DHT22;10223;50.862;4.360;2023-02-10T13:31:31;6.70;99.90
20125;DHT22;10223;50.862;4.360;2023-02-10T13:34:17;6.80;99.90
20125;DHT22;10223;50.862;4.360;2023-02-10T13:36:56;6.90;99.90
20125;DHT22;10223;50.862;4.360;2023-02-10T13:39:25;7.00;99.90
20125;DHT22;10223;50.862;4.360;2023-02-10T13:42:09;6.90;99.90
20125;DHT22;10223;50.862;4.360;2023-02-10T13:44:41;6.80;99.90
20125;DHT22;10223;50.862;4.360;2023-02-10T13:47:27;6.70;99.90
20125;DHT22;10223;50.862;4.360;2023-02-10T13:49:59;6.80;99.90
20125;DHT22;10223;50.862;4.360;2023-02-10T13:52:30;6.90;99.90
20125;DHT22;10223;50.862;4.360;2023-02-10T13:55:02;6.90;99.90
20125;DHT22;10223;50.862;4.360;2023-02-10T13:57:32;7.00;99.90
20125;DHT22;10223;50.862;4.360;2023-02-10T14:00:15;7.00;99.90
20125;DHT22;10223;50.862;4.360;2023-02-10T14:02:43;6.70;99.90
20125;DHT22;10223;50.862;4.360;2023-02-10T14:05:26;6.70;99.90
20125;DHT22;10223;50.862;4.360;2023-02-10T14:07:53;6.70;99.90
20125;DHT22;10223;50.862;4.360;2023-02-10T14:10:28;6.90;99.90
20125;DHT22;10223;50.862;4.360;2023-02-10T14:12:58;6.80;99.90
20125;DHT22;10223;50.862;4.360;2023-02-10T14:15:27;6.80;99.90
20125;DHT22;10223;50.862;4.360;2023-02-10T14:17:57;6.80;99.90
20125;DHT22;10223;50.862;4.360;2023-02-10T14:20:30;6.90;99.90
20125;DHT22;10223;50.862;4.360;2023-02-10T14:22:58;7.10;99.90
20125;DHT22;10223;50.862;4.360;2023-02-10T14:25:30;7.20;99.90
20125;DHT22;10223;50.862;4.360;2023-02-10T14:27:58;7.20;99.90
20125;DHT22;10223;50.862;4.360;2023-02-10T14:30:28;7.20;99.90
20125;DHT22;10223;50.862;4.360;2023-02-10T14:32:58;7.20;99.90
20125;DHT22;10223;50.862;4.360;2023-02-10T14:35:27;7.10;99.90
20125;DHT22;10223;50.862;4.360;2023-02-10T14:37:58;7.10;99.90
20125;DHT22;10223;50.862;4.360;2023-02-10T14:40:28;7.20;99.90
20125;DHT22;10223;50.862;4.360;2023-02-10T14:42:57;7.20;99.90
20125;DHT22;10223;50.862;4.360;2023-02-10T14:45:27;7.20;99.90
20125;DHT22;10223;50.862;4.360;2023-02-10T14:47:58;7.00;99.90
20125;DHT22;10223;50.862;4.360;2023-02-10T14:50:29;7.10;99.90
20125;DHT22;10223;50.862;4.360;2023-02-10T14:52:58;7.20;99.90
20125;DHT22;10223;50.862;4.360;2023-02-10T14:55:28;7.40;99.90
20125;DHT22;10223;50.862;4.360;2023-02-10T14:58:05;7.40;99.90
20125;DHT22;10223;50.862;4.360;2023-02-10T15:00:33;7.50;99.90
20125;DHT22;10223;50.862;4.360;2023-02-10T15:03:02;7.50;99.90
20125;DHT22;10223;50.862;4.360;2023-02-10T15:05:35;7.50;99.90
20125;DHT22;10223;50.862;4.360;2023-02-10T15:08:18;7.50;99.90
20125;DHT22;10223;50.862;4.360;2023-02-10T15:10:50;7.60;99.90
20125;DHT22;10223;50.862;4.360;2023-02-10T15:13:19;7.30;99.90
20125;DHT22;10223;50.862;4.360;2023-02-10T15:15:50;7.40;99.90
20125;DHT22;10223;50.862;4.360;2023-02-10T15:18:20;7.50;99.90
20125;DHT22;10223;50.862;4.360;2023-02-10T15:20:57;7.60;99.90
20125;DHT22;10223;50.862;4.360;2023-02-10T15:23:25;7.60;99.90
20125;DHT22;10223;50.862;4.360;2023-02-10T15:26:01;7.70;99.90
20125;DHT22;10223;50.862;4.360;2023-02-10T15:28:28;7.70;99.90
20125;DHT22;10223;50.862;4.360;2023-02-10T15:30:59;7.70;99.90
20125;DHT22;10223;50.862;4.360;2023-02-10T15:33:30;7.60;99.90
20125;DHT22;10223;50.862;4.360;2023-02-10T15:36:20;7.60;99.90
20125;DHT22;10223;50.862;4.360;2023-02-10T15:38:50;7.60;99.90
20125;DHT22;10223;50.862;4.360;2023-02-10T15:41:31;7.70;99.90
20125;DHT22;10223;50.862;4.360;2023-02-10T15:43:58;7.80;99.90
20125;DHT22;10223;50.862;4.360;2023-02-10T15:46:27;7.70;99.90
20125;DHT22;10223;50.862;4.360;2023-02-10T15:49:05;7.70;99.90
20125;DHT22;10223;50.862;4.360;2023-02-10T15:51:39;7.70;99.90
20125;DHT22;10223;50.862;4.360;2023-02-10T15:54:08;7.60;99.90
20125;DHT22;10223;50.862;4.360;2023-02-10T15:56:38;7.70;99.90
20125;DHT22;10223;50.862;4.360;2023-02-10T15:59:09;7.60;99.90
20125;DHT22;10223;50.862;4.360;2023-02-10T16:01:39;7.50;99.90
20125;DHT22;10223;50.862;4.360;2023-02-10T16:04:06;7.50;99.90
20125;DHT22;10223;50.862;4.360;2023-02-10T16:06:35;7.50;99.90
20125;DHT22;10223;50.862;4.360;2023-02-10T16:09:02;7.40;99.90
20125;DHT22;10223;50.862;4.360;2023-02-10T16:11:29;7.50;99.90
20125;DHT22;10223;50.862;4.360;2023-02-10T16:13:56;7.50;99.90
20125;DHT22;10223;50.862;4.360;2023-02-10T16:16:23;7.60;99.90